createdAt,value
2023-04-23T00:00:30.913Z,99315.25
2023-04-23T00:03:06.399Z,99313.53
2023-04-23T00:05:36.780Z,99311.84
2023-04-23T00:08:06.782Z,99314.41
2023-04-23T00:10:37.109Z,99305.91
2023-04-23T00:13:06.219Z,99316.19
2023-04-23T00:15:35.729Z,99317.97
2023-04-23T00:18:04.721Z,99320.50
2023-04-23T00:20:34.680Z,99316.28
2023-04-23T00:23:03.620Z,99311.16
2023-04-23T00:25:32.389Z,99315.41
2023-04-23T00:28:02.617Z,99309.47
2023-04-23T00:30:31.520Z,99302.69
2023-04-23T00:33:00.864Z,99313.72
2023-04-23T00:35:29.862Z,99303.53
2023-04-23T00:37:58.626Z,99309.47
2023-04-23T00:40:27.511Z,99295.03
2023-04-23T00:42:59.064Z,99302.69
2023-04-23T00:45:29.585Z,99305.22
2023-04-23T00:48:00.014Z,99262.81
2023-04-23T00:50:29.026Z,99294.19
2023-04-23T00:52:57.870Z,99289.94
2023-04-23T00:55:27.058Z,99295.88
2023-04-23T00:57:56.058Z,99290.75
2023-04-23T01:00:25.472Z,99296.69
2023-04-23T01:02:56.048Z,99303.50
2023-04-23T01:05:25.371Z,99297.53
2023-04-23T01:07:54.433Z,99306.91
2023-04-23T01:10:23.631Z,99296.72
2023-04-23T01:12:52.448Z,99302.69
2023-04-23T01:15:21.425Z,99298.44
2023-04-23T01:17:50.133Z,99300.16
2023-04-23T01:20:20.590Z,99301.00
2023-04-23T01:22:51.196Z,99289.97
2023-04-23T01:25:20.246Z,99295.06
2023-04-23T01:27:49.354Z,99291.69
2023-04-23T01:30:20.786Z,99296.78
2023-04-23T01:32:50.678Z,99288.28
2023-04-23T01:35:19.736Z,99293.38
2023-04-23T01:37:50.036Z,99292.53
2023-04-23T01:40:22.956Z,99289.97
2023-04-23T01:42:52.606Z,99293.38
2023-04-23T01:45:22.312Z,99298.47
2023-04-23T01:47:51.731Z,99296.78
2023-04-23T01:50:22.502Z,99297.63
2023-04-23T01:52:51.324Z,99291.69
2023-04-23T01:55:24.021Z,99293.38
2023-04-23T01:57:53.017Z,99293.38
2023-04-23T02:00:22.043Z,99262.00
2023-04-23T02:02:52.760Z,99293.38
2023-04-23T02:05:22.901Z,99289.13
2023-04-23T02:07:53.443Z,99295.09
2023-04-23T02:10:23.772Z,99288.28
2023-04-23T02:12:52.575Z,99289.97
2023-04-23T02:15:21.986Z,99288.28
2023-04-23T02:17:51.407Z,99280.63
2023-04-23T02:20:20.491Z,99289.97
2023-04-23T02:22:50.957Z,99284.88
2023-04-23T02:25:22.128Z,99285.72
2023-04-23T02:27:52.471Z,99283.16
2023-04-23T02:30:21.604Z,99286.56
2023-04-23T02:32:50.626Z,99287.41
2023-04-23T02:35:19.549Z,99272.16
2023-04-23T02:37:48.309Z,99276.41
2023-04-23T02:40:17.022Z,99277.22
2023-04-23T02:42:46.088Z,99282.31
2023-04-23T02:45:16.545Z,99274.63
2023-04-23T02:47:45.486Z,99276.31
2023-04-23T02:50:14.351Z,99281.41
2023-04-23T02:52:43.784Z,99278.00
2023-04-23T02:55:12.541Z,99281.34
2023-04-23T02:57:41.392Z,99278.81
2023-04-23T03:00:15.167Z,99280.50
2023-04-23T03:02:47.172Z,99284.75
2023-04-23T03:05:16.144Z,99284.72
2023-04-23T03:07:44.984Z,99273.72
2023-04-23T03:10:13.946Z,99281.28
2023-04-23T03:12:42.605Z,99272.81
2023-04-23T03:15:12.380Z,99271.13
2023-04-23T03:17:42.128Z,99272.84
2023-04-23T03:20:12.941Z,99266.94
2023-04-23T03:22:42.682Z,99283.00
2023-04-23T03:25:11.635Z,99272.78
2023-04-23T03:27:41.463Z,99271.13
2023-04-23T03:30:11.242Z,99276.16
2023-04-23T03:32:40.299Z,99276.16
2023-04-23T03:35:11.516Z,99278.69
2023-04-23T03:37:44.681Z,99277.88
2023-04-23T03:40:14.612Z,99291.38
2023-04-23T03:42:46.367Z,99277.00
2023-04-23T03:45:17.583Z,99276.94
2023-04-23T03:47:46.898Z,99277.81
2023-04-23T03:50:17.895Z,99289.66
2023-04-23T03:52:53.189Z,99282.84
2023-04-23T03:55:42.130Z,99281.09
2023-04-23T03:58:11.204Z,99282.81
2023-04-23T04:00:46.557Z,99285.34
2023-04-23T04:03:15.787Z,99289.63
2023-04-23T04:05:46.112Z,99289.63
2023-04-23T04:08:14.918Z,99285.44
2023-04-23T04:10:43.666Z,99282.13
2023-04-23T04:13:12.533Z,99281.22
2023-04-23T04:15:41.326Z,99282.97
2023-04-23T04:18:10.182Z,99290.59
2023-04-23T04:20:38.889Z,99288.91
2023-04-23T04:23:09.166Z,99291.53
2023-04-23T04:25:40.324Z,99294.13
2023-04-23T04:28:09.546Z,99295.88
2023-04-23T04:30:38.403Z,99301.72
2023-04-23T04:33:07.196Z,99298.41
2023-04-23T04:35:35.943Z,99296.72
2023-04-23T04:38:04.773Z,99304.38
2023-04-23T04:40:35.285Z,99299.31
2023-04-23T04:43:05.502Z,99312.88
2023-04-23T04:45:34.393Z,99309.47
2023-04-23T04:48:03.314Z,99310.34
2023-04-23T04:50:32.197Z,99305.25
2023-04-23T04:53:01.225Z,99303.56
2023-04-23T04:55:30.073Z,99301.84
2023-04-23T04:58:00.724Z,99312.03
2023-04-23T05:00:31.903Z,99303.53
2023-04-23T05:03:01.161Z,99305.19
2023-04-23T05:05:30.075Z,99306.84
2023-04-23T05:08:02.650Z,99306.84
2023-04-23T05:10:31.654Z,99308.47
2023-04-23T05:13:02.038Z,99301.66
2023-04-23T05:15:31.129Z,99299.06
2023-04-23T05:17:59.940Z,99303.22
2023-04-23T05:20:28.845Z,99299.75
2023-04-23T05:22:59.811Z,99304.75
2023-04-23T05:25:28.743Z,99281.81
2023-04-23T05:27:57.662Z,99292.59
2023-04-23T05:30:28.146Z,99301.84
2023-04-23T05:32:57.017Z,99301.69
2023-04-23T05:35:25.803Z,99303.25
2023-04-23T05:37:54.752Z,99298.78
2023-04-23T05:40:23.428Z,99294.34
2023-04-23T05:42:52.584Z,99299.16
2023-04-23T05:45:21.953Z,99298.06
2023-04-23T05:47:53.384Z,99302.19
2023-04-23T05:50:23.277Z,99294.41
2023-04-23T05:52:51.826Z,99303.44
2023-04-23T05:55:21.050Z,99304.91
2023-04-23T05:57:49.797Z,99297.13
2023-04-23T06:00:18.754Z,99296.13
2023-04-23T06:02:48.040Z,99305.28
2023-04-23T06:05:18.409Z,99299.84
2023-04-23T06:07:47.823Z,99305.53
2023-04-23T06:10:16.532Z,99301.03
2023-04-23T06:12:45.377Z,99293.22
2023-04-23T06:15:14.115Z,99295.44
2023-04-23T06:17:42.864Z,99293.63
2023-04-23T06:20:12.262Z,99295.09
2023-04-23T06:22:53.701Z,99300.00
2023-04-23T06:25:22.786Z,99293.19
2023-04-23T06:27:51.377Z,99297.88
2023-04-23T06:30:24.827Z,99300.81
2023-04-23T06:32:54.978Z,99293.16
2023-04-23T06:35:23.922Z,99292.03
2023-04-23T06:37:54.122Z,99291.69
2023-04-23T06:40:22.891Z,99291.38
2023-04-23T06:42:51.544Z,99284.53
2023-04-23T06:45:33.511Z,99283.19
2023-04-23T06:48:02.533Z,99282.03
2023-04-23T06:50:31.493Z,99272.38
2023-04-23T06:53:01.641Z,99275.25
2023-04-23T06:55:30.542Z,99279.09
2023-04-23T06:57:59.522Z,99280.47
2023-04-23T07:00:28.331Z,99276.63
2023-04-23T07:02:57.859Z,99282.84
2023-04-23T07:05:26.560Z,99280.53
2023-04-23T07:07:55.282Z,99287.00
2023-04-23T07:10:26.050Z,99276.41
2023-04-23T07:12:55.039Z,99283.06
2023-04-23T07:15:24.803Z,99279.03
2023-04-23T07:17:54.295Z,99273.47
2023-04-23T07:20:23.085Z,99278.53
2023-04-23T07:22:52.115Z,99274.50
2023-04-23T07:25:22.158Z,99278.34
2023-04-23T07:27:52.442Z,99276.88
2023-04-23T07:30:21.659Z,99271.78
2023-04-23T07:32:50.550Z,99276.22
2023-04-23T07:35:20.583Z,99268.88
2023-04-23T07:37:53.905Z,99268.22
2023-04-23T07:40:23.680Z,99262.75
2023-04-23T07:42:53.531Z,99271.78
2023-04-23T07:45:22.518Z,99259.00
2023-04-23T07:47:52.191Z,99272.81
2023-04-23T07:50:21.200Z,99264.09
2023-04-23T07:52:50.033Z,99270.78
2023-04-23T07:55:20.520Z,99267.81
2023-04-23T07:57:49.233Z,99263.97
2023-04-23T08:00:20.051Z,99265.13
2023-04-23T08:02:49.525Z,99251.50
2023-04-23T08:05:18.384Z,99260.94
2023-04-23T08:07:47.532Z,99258.75
2023-04-23T08:10:16.300Z,99254.94
2023-04-23T08:12:45.936Z,99258.88
2023-04-23T08:15:14.385Z,99257.66
2023-04-23T08:17:47.325Z,99260.31
2023-04-23T08:20:16.424Z,99255.66
2023-04-23T08:22:45.190Z,99255.47
2023-04-23T08:25:14.195Z,99254.38
2023-04-23T08:27:43.035Z,99247.34
2023-04-23T08:30:12.252Z,99248.34
2023-04-23T08:32:41.901Z,99254.47
2023-04-23T08:35:13.181Z,99251.03
2023-04-23T08:37:41.959Z,99247.78
2023-04-23T08:40:11.549Z,99256.09
2023-04-23T08:42:44.710Z,99245.06
2023-04-23T08:45:14.626Z,99244.63
2023-04-23T08:47:44.621Z,99240.81
2023-04-23T08:50:20.161Z,99234.81
2023-04-23T08:52:51.789Z,99238.94
2023-04-23T08:55:22.179Z,99235.44
2023-04-23T08:57:51.740Z,99229.09
2023-04-23T09:00:23.570Z,99226.66
2023-04-23T09:02:52.641Z,99227.28
2023-04-23T09:05:22.986Z,99221.13
2023-04-23T09:07:51.814Z,99229.31
2023-04-23T09:10:20.539Z,99220.53
2023-04-23T09:12:49.906Z,99223.34
2023-04-23T09:15:18.844Z,99231.03
2023-04-23T09:17:50.319Z,99227.59
2023-04-23T09:20:19.071Z,99218.59
2023-04-23T09:22:50.804Z,99214.44
2023-04-23T09:25:21.628Z,99219.31
2023-04-23T09:27:53.176Z,99221.91
2023-04-23T09:30:22.308Z,99213.44
2023-04-23T09:32:51.187Z,99209.56
2023-04-23T09:35:21.038Z,99216.72
2023-04-23T09:37:53.683Z,99211.13
2023-04-23T09:40:25.346Z,99209.22
2023-04-23T09:42:55.098Z,99203.59
2023-04-23T09:45:25.577Z,99211.56
2023-04-23T09:47:56.607Z,99208.41
2023-04-23T09:50:35.300Z,99205.31
2023-04-23T09:53:06.679Z,99203.31
2023-04-23T09:55:38.904Z,99203.13
2023-04-23T09:58:12.450Z,99198.94
2023-04-23T10:00:42.028Z,99193.75
2023-04-23T10:03:12.456Z,99187.06
2023-04-23T10:08:17.569Z,99193.75
2023-04-23T10:11:00.161Z,99191.31
2023-04-23T10:13:37.221Z,99183.94
2023-04-23T10:16:18.615Z,99179.75
2023-04-23T10:18:55.641Z,99186.72
2023-04-23T10:21:36.681Z,99170.34
2023-04-23T10:24:14.997Z,99166.56
2023-04-23T10:26:44.957Z,99160.25
2023-04-23T10:29:16.689Z,99162.44
2023-04-23T10:31:47.467Z,99164.75
2023-04-23T10:34:16.875Z,99161.72
2023-04-23T10:36:45.809Z,99161.69
2023-04-23T10:39:24.013Z,99157.84
2023-04-23T10:42:00.222Z,99130.00
2023-04-23T10:44:56.531Z,99146.69
2023-04-23T10:47:24.134Z,99143.44
2023-04-23T10:49:53.198Z,99155.44
2023-04-23T10:52:25.245Z,99148.66
2023-04-23T10:55:01.544Z,99152.31
2023-04-23T10:57:31.510Z,99146.00
2023-04-23T11:00:04.842Z,99138.06
2023-04-23T11:02:45.925Z,99138.53
2023-04-23T11:05:15.651Z,99141.88
2023-04-23T11:07:43.988Z,99137.03
2023-04-23T11:10:15.885Z,99139.75
2023-04-23T11:12:45.960Z,99128.28
2023-04-23T11:15:16.659Z,99133.72
2023-04-23T11:18:00.756Z,99128.69
2023-04-23T11:20:29.641Z,99126.34
2023-04-23T11:22:58.430Z,99130.38
2023-04-23T11:25:30.649Z,99127.03
2023-04-23T11:27:59.932Z,99126.00
2023-04-23T11:30:30.953Z,99123.28
2023-04-23T11:33:02.162Z,99113.44
2023-04-23T11:35:39.875Z,99120.22
2023-04-23T11:38:10.507Z,99110.66
2023-04-23T11:40:43.132Z,99114.09
2023-04-23T11:43:11.979Z,99114.75
2023-04-23T11:45:40.871Z,99109.22
2023-04-23T11:48:10.635Z,99106.56
2023-04-23T11:50:39.410Z,99100.59
2023-04-23T11:53:10.621Z,99112.97
2023-04-23T11:55:44.259Z,99107.63
2023-04-23T11:58:13.744Z,99105.66
2023-04-23T12:00:42.449Z,99098.75
2023-04-23T12:03:12.300Z,99094.19
2023-04-23T12:05:45.484Z,99098.50
2023-04-23T12:08:16.737Z,99095.84
2023-04-23T12:10:48.313Z,99090.81
2023-04-23T12:13:18.056Z,99097.69
2023-04-23T12:15:50.476Z,99088.50
2023-04-23T12:18:20.082Z,99092.56
2023-04-23T12:20:48.519Z,99090.19
2023-04-23T12:23:17.296Z,99094.63
2023-04-23T12:25:47.779Z,99082.00
2023-04-23T12:28:16.464Z,99093.28
2023-04-23T12:30:46.274Z,99083.19
2023-04-23T12:33:15.762Z,99077.47
2023-04-23T12:35:47.226Z,99072.47
2023-04-23T12:38:27.288Z,99079.25
2023-04-23T12:40:59.440Z,99076.03
2023-04-23T12:43:28.669Z,99075.22
2023-04-23T12:45:57.584Z,99070.50
2023-04-23T12:48:26.694Z,99076.34
2023-04-23T12:50:55.447Z,99058.56
2023-04-23T12:53:24.499Z,99073.00
2023-04-23T12:55:53.127Z,99066.47
2023-04-23T12:58:23.398Z,99062.69
2023-04-23T13:00:52.215Z,99063.25
2023-04-23T13:03:21.114Z,99065.00
2023-04-23T13:05:49.936Z,99055.97
2023-04-23T13:08:18.586Z,99056.53
2023-04-23T13:10:47.568Z,99051.13
2023-04-23T13:13:16.223Z,99047.91
2023-04-23T13:15:49.545Z,99044.63
2023-04-23T13:18:18.517Z,99047.81
2023-04-23T13:20:47.314Z,99037.00
2023-04-23T13:23:16.513Z,99033.22
2023-04-23T13:25:45.140Z,99030.13
2023-04-23T13:28:13.915Z,99028.44
2023-04-23T13:30:42.604Z,99037.00
2023-04-23T13:33:12.856Z,99027.59
2023-04-23T13:35:42.147Z,99032.91
2023-04-23T13:38:10.911Z,99022.38
2023-04-23T13:40:39.687Z,99019.00
2023-04-23T13:43:08.454Z,99016.03
2023-04-23T13:45:37.250Z,99016.66
2023-04-23T13:48:08.165Z,99010.28
2023-04-23T13:50:38.767Z,99018.50
2023-04-23T13:53:07.506Z,99008.25
2023-04-23T13:55:36.280Z,99009.59
2023-04-23T13:58:05.388Z,99006.25
2023-04-23T14:00:34.448Z,98991.91
2023-04-23T14:03:03.236Z,99002.31
2023-04-23T14:05:32.306Z,98992.94
2023-04-23T14:08:02.585Z,98983.81
2023-04-23T14:10:31.370Z,98978.59
2023-04-23T14:13:00.770Z,98975.84
2023-04-23T14:15:29.338Z,98977.53
2023-04-23T14:17:58.178Z,98980.88
2023-04-23T14:20:27.106Z,98973.38
2023-04-23T14:23:03.501Z,98972.09
2023-04-23T14:25:42.899Z,98979.34
2023-04-23T14:28:31.663Z,98971.00
2023-04-23T14:31:02.636Z,98966.66
2023-04-23T14:33:31.450Z,98960.19
2023-04-23T14:36:00.403Z,98961.88
2023-04-23T14:38:29.647Z,98966.88
2023-04-23T14:40:59.801Z,98961.28
2023-04-23T14:43:28.617Z,98959.56
2023-04-23T14:45:57.496Z,98958.91
2023-04-23T14:48:26.358Z,98962.44
2023-04-23T14:50:55.010Z,98929.28
2023-04-23T14:53:23.875Z,98962.44
2023-04-23T14:55:52.574Z,98965.81
2023-04-23T14:58:22.930Z,98959.63
2023-04-23T15:00:52.374Z,98956.34
2023-04-23T15:03:21.265Z,98959.41
2023-04-23T15:05:50.094Z,98955.03
2023-04-23T15:08:18.817Z,98944.81
2023-04-23T15:10:47.578Z,98956.31
2023-04-23T15:13:45.500Z,98951.13
2023-04-23T15:16:40.562Z,98950.44
2023-04-23T15:19:18.470Z,98945.72
2023-04-23T15:21:48.404Z,98944.25
2023-04-23T15:24:17.550Z,98930.78
2023-04-23T15:26:46.986Z,98939.16
2023-04-23T15:29:17.290Z,98939.44
2023-04-23T15:31:46.208Z,98933.13
2023-04-23T15:34:14.977Z,98937.56
2023-04-23T15:36:44.013Z,98927.00
2023-04-23T15:39:12.793Z,98925.31
2023-04-23T15:41:43.012Z,98929.38
2023-04-23T15:44:13.070Z,98926.44
2023-04-23T15:46:43.192Z,98924.84
2023-04-23T15:49:12.049Z,98916.84
2023-04-23T15:51:40.856Z,98914.91
2023-04-23T15:54:09.653Z,98918.88
2023-04-23T15:56:38.314Z,98914.03
2023-04-23T15:59:07.912Z,98919.72
2023-04-23T16:01:36.809Z,98917.16
2023-04-23T16:04:11.740Z,98914.09
2023-04-23T16:06:41.413Z,98910.78
2023-04-23T16:09:10.218Z,98911.91
2023-04-23T16:11:39.800Z,98904.41
2023-04-23T16:14:09.515Z,98905.06
2023-04-23T16:16:39.443Z,98904.31
2023-04-23T16:19:09.848Z,98908.00
2023-04-23T16:21:38.828Z,98910.91
2023-04-23T16:24:08.092Z,98903.56
2023-04-23T16:26:37.579Z,98893.03
2023-04-23T16:29:21.362Z,98901.22
2023-04-23T16:31:52.458Z,98897.34
2023-04-23T16:34:22.671Z,98900.38
2023-04-23T16:36:51.503Z,98898.50
2023-04-23T16:39:20.214Z,98891.97
2023-04-23T16:41:49.219Z,98886.03
2023-04-23T16:44:17.988Z,98886.13
2023-04-23T16:46:47.020Z,98883.72
2023-04-23T16:49:15.888Z,98892.41
2023-04-23T16:51:46.185Z,98879.00
2023-04-23T16:54:15.203Z,98887.88
2023-04-23T16:56:45.752Z,98884.81
2023-04-23T16:59:15.581Z,98882.94
2023-04-23T17:01:44.461Z,98877.41
2023-04-23T17:04:13.429Z,98881.06
2023-04-23T17:06:42.477Z,98876.34
2023-04-23T17:09:12.741Z,98877.50
2023-04-23T17:11:41.498Z,98881.31
2023-04-23T17:14:10.171Z,98875.59
2023-04-23T17:16:38.950Z,98872.59
2023-04-23T17:19:07.744Z,98878.06
2023-04-23T17:21:36.735Z,98874.31
2023-04-23T17:24:06.015Z,98874.91
2023-04-23T17:26:38.407Z,98878.19
2023-04-23T17:29:07.638Z,98877.88
2023-04-23T17:31:38.263Z,98876.53
2023-04-23T17:34:07.784Z,98877.91
2023-04-23T17:36:36.539Z,98869.13
2023-04-23T17:39:05.899Z,98873.22
2023-04-23T17:41:34.820Z,98875.44
2023-04-23T17:44:04.992Z,98871.34
2023-04-23T17:46:33.840Z,98873.53
2023-04-23T17:49:02.609Z,98876.13
2023-04-23T17:51:31.626Z,98875.22
2023-04-23T17:54:02.101Z,98873.53
2023-04-23T17:56:31.489Z,98881.59
2023-04-23T17:59:00.303Z,98879.31
2023-04-23T18:01:30.980Z,98882.72
2023-04-23T18:04:00.611Z,98878.25
2023-04-23T18:06:29.780Z,98878.06
2023-04-23T18:08:58.568Z,98884.03
2023-04-23T18:11:27.426Z,98880.59
2023-04-23T18:13:58.508Z,98879.88
2023-04-23T18:16:27.427Z,98887.06
2023-04-23T18:18:57.492Z,98889.00
2023-04-23T18:21:26.354Z,98888.81
2023-04-23T18:23:55.064Z,98880.94
2023-04-23T18:26:24.138Z,98874.94
2023-04-23T18:28:52.897Z,98887.91
2023-04-23T18:31:21.967Z,98884.13
2023-04-23T18:34:02.173Z,98887.91
2023-04-23T18:36:34.844Z,98893.56
2023-04-23T18:39:04.137Z,98895.69
2023-04-23T18:41:32.998Z,98879.25
2023-04-23T18:44:02.858Z,98888.38
2023-04-23T18:46:32.266Z,98886.19
2023-04-23T18:49:06.311Z,98907.84
2023-04-23T18:51:39.860Z,98904.56
2023-04-23T18:54:09.287Z,98898.63
2023-04-23T18:56:38.085Z,98903.00
2023-04-23T18:59:07.060Z,98904.31
2023-04-23T19:01:36.023Z,98899.41
2023-04-23T19:04:06.692Z,98901.97
2023-04-23T19:06:35.561Z,98907.91
2023-04-23T19:09:04.437Z,98908.63
2023-04-23T19:11:35.488Z,98906.00
2023-04-23T19:14:04.397Z,98901.84
2023-04-23T19:16:33.474Z,98907.84
2023-04-23T19:19:02.810Z,98895.91
2023-04-23T19:21:33.127Z,98906.13
2023-04-23T19:24:01.949Z,98902.25
2023-04-23T19:26:30.646Z,98892.13
2023-04-23T19:28:59.426Z,98893.28
2023-04-23T19:31:30.387Z,98900.16
2023-04-23T19:33:59.226Z,98892.44
2023-04-23T19:36:27.980Z,98896.91
2023-04-23T19:38:58.338Z,98898.81
2023-04-23T19:41:27.789Z,98898.94
2023-04-23T19:43:56.606Z,98895.69
2023-04-23T19:46:25.421Z,98898.41
2023-04-23T19:48:55.327Z,98899.50
2023-04-23T19:51:29.706Z,98894.50
2023-04-23T19:53:59.982Z,98887.88
2023-04-23T19:56:28.755Z,98886.19
2023-04-23T19:58:57.601Z,98891.47
2023-04-23T20:01:28.373Z,98884.75
2023-04-23T20:03:57.443Z,98887.53
2023-04-23T20:06:26.546Z,98886.06
2023-04-23T20:09:07.809Z,98883.63
2023-04-23T20:11:38.261Z,98881.16
2023-04-23T20:14:07.623Z,98882.03
2023-04-23T20:16:36.811Z,98878.16
2023-04-23T20:19:11.098Z,98876.63
2023-04-23T20:21:40.400Z,98870.72
2023-04-23T20:24:10.388Z,98874.13
2023-04-23T20:26:42.927Z,98875.66
2023-04-23T20:29:11.690Z,98872.75
2023-04-23T20:31:40.478Z,98867.56
2023-04-23T20:34:09.421Z,98867.03
2023-04-23T20:36:39.209Z,98857.81
2023-04-23T20:39:08.407Z,98850.00
2023-04-23T20:41:37.144Z,98857.91
2023-04-23T20:44:07.517Z,98848.63
2023-04-23T20:46:36.894Z,98845.00
2023-04-23T20:49:06.116Z,98846.59
2023-04-23T20:51:35.201Z,98850.63
2023-04-23T20:54:04.310Z,98846.09
2023-04-23T20:56:33.420Z,98841.06
2023-04-23T20:59:02.096Z,98846.78
2023-04-23T21:01:32.988Z,98843.13
2023-04-23T21:04:02.479Z,98834.47
2023-04-23T21:06:33.812Z,98832.03
2023-04-23T21:09:02.550Z,98831.22
2023-04-23T21:11:31.499Z,98831.19
2023-04-23T21:14:01.087Z,98824.53
2023-04-23T21:16:30.005Z,98831.94
2023-04-23T21:19:00.432Z,98830.88
2023-04-23T21:21:30.124Z,98831.63
2023-04-23T21:23:59.799Z,98829.50
2023-04-23T21:26:28.964Z,98827.88
2023-04-23T21:28:58.519Z,98824.13
2023-04-23T21:31:39.472Z,98817.84
2023-04-23T21:34:10.337Z,98813.47
2023-04-23T21:36:39.287Z,98815.91
2023-04-23T21:39:08.283Z,98815.91
2023-04-23T21:41:37.420Z,98814.16
2023-04-23T21:44:06.246Z,98815.63
2023-04-23T21:46:35.227Z,98809.47
2023-04-23T21:49:04.036Z,98808.44
2023-04-23T21:51:37.354Z,98802.38
2023-04-23T21:54:06.807Z,98803.34
2023-04-23T21:56:35.740Z,98810.31
2023-04-23T21:59:04.800Z,98814.78
2023-04-23T22:01:36.971Z,98818.97
2023-04-23T22:04:06.311Z,98813.78
2023-04-23T22:06:36.673Z,98812.69
2023-04-23T22:09:06.050Z,98819.47
2023-04-23T22:11:34.961Z,98801.44
2023-04-23T22:14:03.822Z,98806.94
2023-04-23T22:16:34.075Z,98800.66
2023-04-23T22:19:04.060Z,98804.13
2023-04-23T22:21:33.247Z,98798.31
2023-04-23T22:24:03.977Z,98802.53
2023-04-23T22:26:34.116Z,98801.75
2023-04-23T22:29:03.170Z,98796.88
2023-04-23T22:31:32.054Z,98800.75
2023-04-23T22:34:00.808Z,98807.09
2023-04-23T22:36:29.733Z,98796.47
2023-04-23T22:38:58.543Z,98796.03
2023-04-23T22:41:28.816Z,98796.38
2023-04-23T22:43:57.696Z,98801.69
2023-04-23T22:46:26.450Z,98796.09
2023-04-23T22:48:55.623Z,98798.50
2023-04-23T22:51:25.207Z,98789.78
2023-04-23T22:53:54.190Z,98789.94
2023-04-23T22:56:23.068Z,98793.69
2023-04-23T22:58:53.443Z,98786.09
2023-04-23T23:01:22.711Z,98773.41
2023-04-23T23:03:51.610Z,98780.47
2023-04-23T23:06:20.667Z,98778.28
2023-04-23T23:08:49.540Z,98773.38
2023-04-23T23:11:18.451Z,98769.22
2023-04-23T23:13:48.159Z,98765.03
2023-04-23T23:16:18.889Z,98758.41
2023-04-23T23:18:47.696Z,98764.72
2023-04-23T23:21:16.675Z,98752.94
2023-04-23T23:23:45.671Z,98757.53
2023-04-23T23:26:14.423Z,98750.06
2023-04-23T23:28:43.430Z,98755.31
2023-04-23T23:31:12.272Z,98748.38
2023-04-23T23:33:42.600Z,98762.94
2023-04-23T23:36:12.353Z,98758.78
2023-04-23T23:38:40.877Z,98754.66
2023-04-23T23:41:09.781Z,98759.19
2023-04-23T23:43:38.959Z,98758.94
2023-04-23T23:46:08.073Z,98766.03
2023-04-23T23:48:36.867Z,98767.81
2023-04-23T23:51:07.407Z,98766.34
2023-04-23T23:53:36.294Z,98768.38
2023-04-23T23:56:05.136Z,98771.16
2023-04-23T23:58:34.040Z,98774.69
